Time;durP1;ratioP1;P1;durP2;ratioP2;P2;SDS_P1;SDS_P2;PMS_P1;PMS_P2;Temp;Humidity;BMP_temperature;BMP_pressure;BME280_temperature;BME280_humidity;BME280_pressure;Samples;Min_cycle;Max_cycle;Signal;HPM_P1;HPM_P2
2022/07/02 00:00:06;;;;;;;9.10;5.40;;;14.10;99.90;;;;;;5031615;28;20482;-71
2022/07/02 00:02:36;;;;;;;8.82;5.30;;;14.60;99.90;;;;;;5032028;28;20104;-71
2022/07/02 00:05:05;;;;;;;5.97;5.38;;;14.10;99.90;;;;;;5031886;28;20171;-71
2022/07/02 00:07:31;;;;;;;8.30;5.45;;;14.10;99.90;;;;;;5031660;28;20045;-71
2022/07/02 00:09:58;;;;;;;7.78;6.03;;;14.10;99.90;;;;;;5031253;28;20040;-71
2022/07/02 00:12:26;;;;;;;5.50;5.00;;;13.70;99.90;;;;;;5031856;28;20026;-71
2022/07/02 00:14:54;;;;;;;7.20;5.90;;;14.40;99.90;;;;;;5031545;28;20025;-71
2022/07/02 00:17:21;;;;;;;10.13;6.80;;;13.90;99.90;;;;;;5031450;28;20029;-71
2022/07/02 00:19:47;;;;;;;7.35;6.57;;;;;;;;;;5031535;28;20053;-71
2022/07/02 00:22:14;;;;;;;6.25;5.70;;;13.90;99.90;;;;;;5031283;28;20503;-71
2022/07/02 00:24:41;;;;;;;6.32;5.80;;;13.90;99.90;;;;;;5031186;28;20108;-71
2022/07/02 00:27:09;;;;;;;6.20;5.60;;;13.80;99.90;;;;;;5031557;28;20088;-71
2022/07/02 00:29:52;;;;;;;6.28;5.75;;;13.80;99.90;;;;;;5031385;28;20431;-71
2022/07/02 00:32:18;;;;;;;8.07;6.47;;;13.80;99.90;;;;;;5031899;28;20466;-72
2022/07/02 00:34:45;;;;;;;6.95;6.25;;;13.80;99.90;;;;;;5031890;28;20059;-71
2022/07/02 00:37:13;;;;;;;6.53;5.93;;;13.80;99.90;;;;;;5029698;28;20061;-71
2022/07/02 00:39:39;;;;;;;9.63;6.38;;;13.70;99.90;;;;;;5031144;28;20087;-71
2022/07/02 00:42:07;;;;;;;7.45;6.78;;;13.70;99.90;;;;;;5031161;28;20136;-71
2022/07/02 00:44:33;;;;;;;8.10;6.20;;;13.70;99.90;;;;;;5031705;28;20074;-71
2022/07/02 00:47:04;;;;;;;7.05;6.18;;;13.90;99.90;;;;;;5031287;28;20033;-71
2022/07/02 00:49:32;;;;;;;8.20;7.40;;;13.70;99.90;;;;;;5031171;28;20432;-71
2022/07/02 00:51:58;;;;;;;8.77;7.88;;;13.70;99.90;;;;;;5030499;28;20025;-71
2022/07/02 00:54:24;;;;;;;7.95;7.15;;;;;;;;;;5031208;28;20554;-71
2022/07/02 00:56:53;;;;;;;10.20;7.40;;;13.60;99.90;;;;;;5030802;28;20045;-71
2022/07/02 00:59:22;;;;;;;8.02;7.10;;;13.60;99.90;;;;;;5030880;28;20021;-71
2022/07/02 01:01:49;;;;;;;10.75;6.45;;;;;;;;;;5030517;28;20021;-71
2022/07/02 01:04:15;;;;;;;7.65;6.95;;;;;;;;;;5030716;28;20399;-71
2022/07/02 01:06:42;;;;;;;7.65;6.85;;;13.50;99.90;;;;;;5029057;28;20429;-71
2022/07/02 01:12:01;;;;;;;11.25;7.65;;;13.50;99.90;;;;;;5030942;28;20041;-71
2022/07/02 01:14:27;;;;;;;14.15;7.80;;;13.50;99.90;;;;;;5030926;28;20026;-70
2022/07/02 01:16:54;;;;;;;10.55;6.28;;;13.50;99.90;;;;;;5030760;28;20159;-71
2022/07/02 01:19:21;;;;;;;8.45;6.50;;;13.30;99.90;;;;;;5030374;28;20025;-71
2022/07/02 01:22:10;;;;;;;8.68;7.32;;;13.50;99.90;;;;;;5029917;28;20116;-71
2022/07/02 01:24:36;;;;;;;8.48;7.35;;;;;;;;;;5030480;28;20021;-71
2022/07/02 01:27:02;;;;;;;8.63;7.18;;;13.40;99.90;;;;;;5030062;28;20040;-71
2022/07/02 01:29:28;;;;;;;8.77;7.05;;;;;;;;;;5030429;28;20029;-71
2022/07/02 01:31:53;;;;;;;7.93;7.15;;;13.40;99.90;;;;;;5030069;28;20037;-70
2022/07/02 01:34:19;;;;;;;9.77;6.93;;;13.30;99.90;;;;;;5030092;28;20017;-71
2022/07/02 01:36:45;;;;;;;12.15;7.25;;;13.30;99.90;;;;;;5029759;28;20364;-71
2022/07/02 01:39:10;;;;;;;9.68;7.03;;;;;;;;;;5029898;28;20029;-70
2022/07/02 01:41:39;;;;;;;10.93;6.90;;;13.30;99.90;;;;;;5030323;28;20025;-71
2022/07/02 01:44:05;;;;;;;7.97;7.20;;;13.20;99.90;;;;;;5029829;28;20134;-71
2022/07/02 01:46:31;;;;;;;10.13;6.80;;;13.20;99.90;;;;;;5030122;28;20049;-72
2022/07/02 01:48:56;;;;;;;8.02;7.30;;;13.10;99.90;;;;;;5029632;28;20068;-71
2022/07/02 01:51:22;;;;;;;10.50;8.35;;;;;;;;;;5029223;28;20096;-71
2022/07/02 01:53:48;;;;;;;9.98;8.98;;;13.10;99.90;;;;;;5029983;28;20029;-71
2022/07/02 01:56:14;;;;;;;12.35;9.90;;;;;;;;;;5029804;28;20030;-71
2022/07/02 01:58:39;;;;;;;13.65;10.00;;;13.00;99.90;;;;;;5030029;28;20489;-71
2022/07/02 02:01:05;;;;;;;10.23;9.25;;;13.00;99.90;;;;;;5029469;28;20410;-71
2022/07/02 02:03:31;;;;;;;9.55;8.00;;;13.00;99.90;;;;;;5029885;28;20029;-71
2022/07/02 02:05:56;;;;;;;11.65;8.82;;;13.00;99.90;;;;;;5029359;28;20053;-71
2022/07/02 02:08:22;;;;;;;8.50;7.70;;;;;;;;;;5029445;28;20183;-70
2022/07/02 02:10:49;;;;;;;10.35;7.95;;;13.00;99.90;;;;;;5029592;28;20022;-70
2022/07/02 02:13:14;;;;;;;10.45;8.55;;;13.00;99.90;;;;;;5029691;28;20026;-71
2022/07/02 02:15:40;;;;;;;8.68;7.80;;;13.00;99.90;;;;;;5029420;28;20113;-71
2022/07/02 02:18:06;;;;;;;8.95;7.00;;;;;;;;;;5029488;28;20036;-71
2022/07/02 02:20:31;;;;;;;9.10;8.15;;;12.90;99.90;;;;;;5029412;28;20463;-70
2022/07/02 02:23:00;;;;;;;9.25;8.45;;;;;;;;;;5029508;28;20084;-71
2022/07/02 02:25:26;;;;;;;11.35;7.90;;;;;;;;;;5029820;28;20017;-71
2022/07/02 02:27:52;;;;;;;8.43;7.53;;;;;;;;;;5029482;28;20467;-71
2022/07/02 02:30:17;;;;;;;8.60;7.40;;;12.80;99.90;;;;;;5028014;28;20030;-71
2022/07/02 02:32:43;;;;;;;8.02;7.32;;;12.70;99.90;;;;;;5029327;28;20033;-71
2022/07/02 02:35:09;;;;;;;7.68;6.97;;;12.80;99.90;;;;;;5029056;28;20033;-71
2022/07/02 02:37:34;;;;;;;9.00;8.07;;;12.80;99.90;;;;;;5029375;28;20455;-71
2022/07/02 02:40:00;;;;;;;9.82;7.43;;;;;;;;;;5029303;28;20022;-72
2022/07/02 02:42:26;;;;;;;8.35;7.55;;;12.60;99.90;;;;;;5029653;28;20124;-73
2022/07/02 02:44:52;;;;;;;11.13;8.00;;;;;;;;;;5028986;28;20025;-72
2022/07/02 02:47:17;;;;;;;8.15;7.13;;;12.70;99.90;;;;;;5029374;28;20040;-71
2022/07/02 02:49:43;;;;;;;9.13;7.13;;;12.50;99.90;;;;;;5027371;28;20037;-71
2022/07/02 02:52:09;;;;;;;8.32;6.80;;;12.70;99.90;;;;;;5029324;28;20022;-71
2022/07/02 02:54:34;;;;;;;12.32;7.38;;;12.70;99.90;;;;;;5029255;28;20021;-71
2022/07/02 02:57:00;;;;;;;8.63;6.63;;;12.60;99.90;;;;;;5029448;28;20021;-71
2022/07/02 02:59:25;;;;;;;9.68;7.22;;;12.70;99.90;;;;;;5030423;28;20038;-71
2022/07/02 03:01:51;;;;;;;12.00;8.90;;;12.60;99.90;;;;;;5032893;28;20025;-71
2022/07/02 03:04:16;;;;;;;7.30;6.63;;;12.60;99.90;;;;;;5032512;28;20430;-71
2022/07/02 03:06:42;;;;;;;8.80;7.18;;;;;;;;;;5032960;28;20033;-71
2022/07/02 03:09:08;;;;;;;7.65;6.95;;;12.60;99.90;;;;;;5032957;28;20060;-72
2022/07/02 03:11:34;;;;;;;10.30;7.82;;;;;;;;;;5032615;28;20022;-72
2022/07/02 03:13:59;;;;;;;8.27;7.57;;;;;;;;;;5032491;28;20036;-71
2022/07/02 03:16:25;;;;;;;7.50;6.90;;;12.60;99.90;;;;;;5032537;28;20022;-72
2022/07/02 03:18:51;;;;;;;9.90;7.47;;;12.80;99.90;;;;;;5032704;28;20030;-71
2022/07/02 03:21:16;;;;;;;8.13;7.13;;;12.50;99.90;;;;;;5032727;28;20117;-71
2022/07/02 03:23:42;;;;;;;13.13;7.47;;;12.50;99.90;;;;;;5032540;28;20042;-71
2022/07/02 03:26:08;;;;;;;7.53;6.75;;;12.60;99.90;;;;;;5032655;28;20510;-71
2022/07/02 03:28:34;;;;;;;9.35;6.45;;;;;;;;;;5032680;28;20025;-71
2022/07/02 03:30:59;;;;;;;8.40;7.60;;;12.50;99.90;;;;;;5031689;28;20144;-71
2022/07/02 03:33:27;;;;;;;8.15;7.45;;;12.60;99.90;;;;;;5032719;28;20112;-71
2022/07/02 03:35:53;;;;;;;9.45;7.18;;;;;;;;;;5032345;28;20088;-71
2022/07/02 03:38:19;;;;;;;9.52;6.95;;;12.60;99.90;;;;;;5032425;28;20166;-71
2022/07/02 03:40:44;;;;;;;8.55;7.18;;;12.60;99.90;;;;;;5032191;28;20034;-71
2022/07/02 03:43:10;;;;;;;9.55;6.85;;;;;;;;;;5032128;28;20035;-71
2022/07/02 03:45:35;;;;;;;7.78;7.05;;;12.70;99.90;;;;;;5030609;28;20544;-71
2022/07/02 03:48:01;;;;;;;8.70;7.80;;;12.80;99.90;;;;;;5031933;28;20057;-71
2022/07/02 03:50:27;;;;;;;9.52;8.68;;;12.90;99.90;;;;;;5032472;28;20104;-71
2022/07/02 03:52:53;;;;;;;10.90;8.18;;;;;;;;;;5030663;28;20029;-71
2022/07/02 03:55:18;;;;;;;10.48;8.23;;;12.80;99.90;;;;;;5032137;28;20486;-71
2022/07/02 03:57:44;;;;;;;9.80;8.80;;;12.80;99.90;;;;;;5031773;28;20450;-71
2022/07/02 04:00:10;;;;;;;10.07;7.75;;;12.80;99.90;;;;;;5031552;28;20085;-71
2022/07/02 04:02:36;;;;;;;11.65;8.45;;;12.80;99.90;;;;;;5030641;28;20108;-71
2022/07/02 04:05:02;;;;;;;8.05;7.35;;;;;;;;;;5031605;28;20079;-71
2022/07/02 04:07:27;;;;;;;9.90;8.63;;;12.50;99.90;;;;;;5031868;28;20556;-71
2022/07/02 04:09:53;;;;;;;9.45;8.13;;;;;;;;;;5031740;28;20105;-71
2022/07/02 04:12:19;;;;;;;10.95;8.35;;;12.60;99.90;;;;;;5031211;28;20029;-71
2022/07/02 04:14:44;;;;;;;10.68;9.30;;;12.70;99.90;;;;;;5029901;28;20037;-71
2022/07/02 04:17:10;;;;;;;10.18;9.05;;;12.90;99.90;;;;;;5031545;28;20075;-71
2022/07/02 04:19:36;;;;;;;9.43;8.57;;;12.80;99.90;;;;;;5031657;28;20446;-71
2022/07/02 04:22:01;;;;;;;10.18;9.20;;;12.80;99.90;;;;;;5031312;28;20084;-71
2022/07/02 04:24:30;;;;;;;11.10;10.00;;;12.90;99.90;;;;;;5031674;28;20553;-71
2022/07/02 04:26:56;;;;;;;10.40;9.50;;;;;;;;;;5031442;28;20032;-71
2022/07/02 04:29:22;;;;;;;10.48;9.48;;;13.00;99.90;;;;;;5030835;28;20061;-71
2022/07/02 04:31:48;;;;;;;10.27;9.27;;;;;;;;;;5031285;28;20049;-71
2022/07/02 04:34:14;;;;;;;10.40;9.02;;;13.10;99.90;;;;;;5031001;28;20018;-71
2022/07/02 04:36:40;;;;;;;10.77;9.65;;;13.10;99.90;;;;;;5030885;28;20029;-71
2022/07/02 04:39:06;;;;;;;10.68;9.18;;;13.20;99.90;;;;;;5030814;28;20045;-71
2022/07/02 04:41:32;;;;;;;10.20;8.70;;;13.40;99.90;;;;;;5031066;28;20377;-71
2022/07/02 04:43:58;;;;;;;12.35;8.77;;;13.40;99.90;;;;;;5029352;28;20095;-71
2022/07/02 04:46:24;;;;;;;11.35;8.40;;;13.70;99.90;;;;;;5031079;28;20093;-71
2022/07/02 04:48:50;;;;;;;8.70;7.43;;;14.00;99.90;;;;;;5030342;28;20080;-71
2022/07/02 04:51:17;;;;;;;8.98;7.88;;;14.20;99.90;;;;;;5030042;28;20528;-71
2022/07/02 04:53:42;;;;;;;7.65;6.88;;;14.10;99.90;;;;;;5030271;28;20029;-71
2022/07/02 04:56:08;;;;;;;9.75;6.65;;;14.00;99.90;;;;;;5030135;28;20087;-71
2022/07/02 04:58:34;;;;;;;9.43;6.60;;;;;;;;;;5030255;28;20071;-71
2022/07/02 05:00:59;;;;;;;7.80;6.43;;;14.40;99.90;;;;;;5028996;28;20030;-71
2022/07/02 05:03:25;;;;;;;10.70;6.88;;;14.60;99.90;;;;;;5030775;28;20045;-71
2022/07/02 05:05:50;;;;;;;7.70;6.35;;;14.60;99.90;;;;;;5029129;28;20053;-71
2022/07/02 05:08:16;;;;;;;8.65;6.20;;;14.60;99.90;;;;;;5018653;28;20064;-71
2022/07/02 05:10:42;;;;;;;8.27;6.43;;;;;;;;;;5042613;28;20113;-71
2022/07/02 05:13:07;;;;;;;6.68;6.07;;;15.00;99.90;;;;;;5029941;28;20041;-71
2022/07/02 05:15:33;;;;;;;6.00;5.40;;;15.00;99.90;;;;;;5028747;28;20026;-71
2022/07/02 05:17:59;;;;;;;6.95;5.78;;;;;;;;;;5017965;28;20060;-71
2022/07/02 05:20:25;;;;;;;13.05;7.13;;;15.40;99.90;;;;;;5029048;28;20021;-71
2022/07/02 05:22:50;;;;;;;6.88;5.40;;;15.70;99.90;;;;;;5010173;28;20394;-71
2022/07/02 05:25:16;;;;;;;6.32;5.75;;;15.60;99.90;;;;;;5022120;28;20034;-71
2022/07/02 05:27:41;;;;;;;7.35;4.90;;;15.60;99.90;;;;;;5029464;28;20017;-71
2022/07/02 05:30:07;;;;;;;5.88;5.00;;;15.70;99.90;;;;;;5030058;28;20032;-71
2022/07/02 05:32:33;;;;;;;5.70;4.10;;;15.60;99.90;;;;;;5029459;28;20025;-71
2022/07/02 05:34:58;;;;;;;6.03;5.47;;;16.00;99.90;;;;;;5030004;28;20037;-71
2022/07/02 05:37:24;;;;;;;7.18;4.72;;;16.10;99.90;;;;;;5030767;28;20024;-71
2022/07/02 05:39:49;;;;;;;8.25;5.13;;;16.10;99.90;;;;;;5029767;28;20025;-71
2022/07/02 05:42:15;;;;;;;5.97;4.68;;;16.30;99.90;;;;;;5029408;28;20436;-71
2022/07/02 05:44:41;;;;;;;5.80;3.90;;;16.40;99.90;;;;;;5030001;28;20029;-71
2022/07/02 05:47:06;;;;;;;4.93;4.22;;;16.60;99.90;;;;;;5028479;28;20032;-71
2022/07/02 05:49:32;;;;;;;6.45;3.80;;;16.50;99.90;;;;;;5030259;28;20364;-71
2022/07/02 05:51:57;;;;;;;6.80;4.00;;;16.60;99.90;;;;;;5029690;28;20026;-71
2022/07/02 05:54:23;;;;;;;8.93;3.95;;;17.00;99.90;;;;;;5029577;28;20030;-72
2022/07/02 05:56:48;;;;;;;5.47;3.67;;;16.50;99.90;;;;;;5029457;28;20112;-71
2022/07/02 05:59:14;;;;;;;5.70;4.10;;;16.40;99.90;;;;;;5029514;28;20033;-71
2022/07/02 06:01:39;;;;;;;5.55;4.30;;;16.50;99.90;;;;;;5029810;28;20029;-71
2022/07/02 06:04:05;;;;;;;4.95;3.25;;;16.60;99.90;;;;;;5029461;28;20037;-71
2022/07/02 06:09:14;;;;;;;;;;;16.60;99.90;;;;;;5030147;28;20044;-72
2022/07/02 06:11:40;;;;;;;7.80;3.50;;;;;;;;;;5029462;28;19905;-71
2022/07/02 06:14:07;;;;;;;5.22;3.03;;;16.60;99.90;;;;;;5029476;28;20382;-71
2022/07/02 06:16:32;;;;;;;5.32;2.95;;;16.60;99.90;;;;;;5028670;28;20474;-71
2022/07/02 06:18:58;;;;;;;5.50;3.13;;;16.50;99.90;;;;;;5029469;28;20028;-71
2022/07/02 06:21:24;;;;;;;10.38;3.33;;;16.60;99.90;;;;;;5029793;28;20076;-71
2022/07/02 06:23:49;;;;;;;3.17;2.72;;;16.70;99.90;;;;;;5029596;28;20486;-71
2022/07/02 06:26:15;;;;;;;6.20;2.58;;;16.80;99.90;;;;;;5028859;28;20068;-71
2022/07/02 06:28:40;;;;;;;4.07;2.47;;;16.90;99.90;;;;;;5029686;28;20341;-71
2022/07/02 06:31:06;;;;;;;4.60;2.28;;;16.90;99.90;;;;;;5029266;28;20025;-71
2022/07/02 06:33:31;;;;;;;3.72;1.85;;;16.90;99.90;;;;;;5030368;28;20030;-72
2022/07/02 06:35:57;;;;;;;2.53;1.85;;;17.00;99.90;;;;;;5031963;28;20057;-68
2022/07/02 06:38:22;;;;;;;3.88;1.70;;;17.20;99.90;;;;;;5033404;28;20441;-69
2022/07/02 06:40:48;;;;;;;2.42;1.60;;;17.40;99.90;;;;;;5033260;28;20022;-69
2022/07/02 06:43:13;;;;;;;3.42;1.63;;;17.50;99.90;;;;;;5033076;28;20044;-68
2022/07/02 06:45:39;;;;;;;3.78;1.55;;;17.70;99.90;;;;;;5033370;28;20108;-68
2022/07/02 06:48:04;;;;;;;3.88;1.52;;;17.80;99.90;;;;;;5033312;28;20040;-69
2022/07/02 06:50:30;;;;;;;4.53;1.10;;;17.80;99.90;;;;;;5033412;28;20052;-69
2022/07/02 06:52:55;;;;;;;3.72;1.10;;;17.90;99.90;;;;;;5033285;28;20083;-69
2022/07/02 06:55:21;;;;;;;4.93;1.35;;;17.80;99.90;;;;;;5032665;28;20030;-68
2022/07/02 06:57:49;;;;;;;7.75;2.13;;;17.80;99.90;;;;;;5033109;28;20072;-69
2022/07/02 07:00:15;;;;;;;3.60;0.90;;;17.80;99.90;;;;;;5033168;28;20030;-68
2022/07/02 07:02:40;;;;;;;2.33;0.63;;;17.80;99.90;;;;;;5032963;28;20120;-68
2022/07/02 07:05:06;;;;;;;2.58;0.60;;;18.00;99.90;;;;;;5032901;28;20100;-68
2022/07/02 07:07:32;;;;;;;1.25;0.60;;;18.10;99.90;;;;;;5032755;28;20061;-69
2022/07/02 07:09:58;;;;;;;2.85;0.90;;;18.30;99.90;;;;;;5032487;28;20017;-69
2022/07/02 07:12:24;;;;;;;2.95;0.70;;;18.20;99.80;;;;;;5031563;28;20054;-68
2022/07/02 07:14:50;;;;;;;2.53;1.10;;;;;;;;;;5032715;28;20026;-68
2022/07/02 07:17:16;;;;;;;2.17;0.98;;;18.20;98.40;;;;;;5031274;28;20101;-69
2022/07/02 07:19:41;;;;;;;1.40;0.95;;;18.40;99.30;;;;;;5032595;28;20021;-68
2022/07/02 07:22:09;;;;;;;5.22;1.30;;;18.30;99.10;;;;;;5032656;28;20032;-68
2022/07/02 07:24:34;;;;;;;2.20;0.70;;;18.40;99.10;;;;;;5032245;28;20035;-69
2022/07/02 07:27:00;;;;;;;2.08;1.00;;;18.40;99.10;;;;;;5032546;28;20477;-68
2022/07/02 07:29:26;;;;;;;2.65;0.60;;;;;;;;;;5032713;28;20037;-68
2022/07/02 07:31:51;;;;;;;2.17;1.05;;;18.40;97.80;;;;;;5032553;28;20033;-68
2022/07/02 07:34:17;;;;;;;1.67;0.60;;;18.50;98.60;;;;;;5032653;28;20041;-68
2022/07/02 07:36:42;;;;;;;3.72;0.35;;;18.50;98.40;;;;;;5032477;28;20118;-68
2022/07/02 07:39:08;;;;;;;1.60;0.38;;;18.70;98.10;;;;;;5032057;28;20037;-68
2022/07/02 07:41:34;;;;;;;1.45;0.40;;;18.20;97.50;;;;;;5032360;28;20032;-68
2022/07/02 07:44:01;;;;;;;0.45;0.20;;;18.80;97.20;;;;;;5032048;28;20479;-68
2022/07/02 07:46:26;;;;;;;1.33;0.43;;;18.70;96.70;;;;;;5031521;28;20014;-68
2022/07/02 07:48:52;;;;;;;1.27;0.57;;;18.90;96.40;;;;;;5032102;28;20455;-68
2022/07/02 07:51:18;;;;;;;2.65;0.70;;;19.00;96.30;;;;;;5032015;28;20101;-69
2022/07/02 07:53:44;;;;;;;1.20;0.40;;;19.00;96.10;;;;;;5031451;28;20037;-69
2022/07/02 07:56:15;;;;;;;1.08;0.77;;;18.90;95.70;;;;;;5032016;28;20387;-70
2022/07/02 07:58:40;;;;;;;1.55;0.40;;;19.10;95.50;;;;;;5032204;28;20028;-69
2022/07/02 08:01:06;;;;;;;1.92;0.40;;;19.20;95.20;;;;;;5031775;28;20017;-69
2022/07/02 08:03:31;;;;;;;1.40;0.32;;;19.30;95.00;;;;;;5031953;28;20041;-69
2022/07/02 08:05:57;;;;;;;0.95;0.35;;;19.60;95.00;;;;;;5031895;28;20025;-69
2022/07/02 08:08:23;;;;;;;0.82;0.30;;;19.40;94.90;;;;;;5031350;28;20052;-70
2022/07/02 08:10:49;;;;;;;1.00;0.28;;;19.50;94.70;;;;;;5031620;28;20443;-69
2022/07/02 08:13:15;;;;;;;1.05;0.40;;;19.60;94.50;;;;;;5031836;28;20475;-70
2022/07/02 08:15:40;;;;;;;0.52;0.30;;;19.50;94.30;;;;;;5031763;28;20044;-70
2022/07/02 08:18:08;;;;;;;2.67;0.47;;;19.70;94.20;;;;;;5031360;28;20030;-70
2022/07/02 08:20:33;;;;;;;1.65;0.43;;;19.80;93.90;;;;;;5031691;28;20411;-70
2022/07/02 08:22:59;;;;;;;0.50;0.30;;;19.80;93.70;;;;;;5030895;28;20029;-70
2022/07/02 08:25:25;;;;;;;1.27;0.30;;;19.80;93.40;;;;;;5031860;28;20033;-70
2022/07/02 08:27:50;;;;;;;2.50;0.80;;;19.90;93.20;;;;;;5031398;28;20029;-69
2022/07/02 08:30:16;;;;;;;3.13;0.52;;;20.00;93.10;;;;;;5031544;28;20518;-70
2022/07/02 08:32:42;;;;;;;1.83;0.30;;;19.90;93.00;;;;;;5031073;28;20082;-70
2022/07/02 08:35:08;;;;;;;1.42;0.40;;;20.00;92.90;;;;;;5031336;28;20025;-70
2022/07/02 08:37:33;;;;;;;2.58;0.50;;;20.10;92.70;;;;;;5031037;28;20033;-70
2022/07/02 08:39:59;;;;;;;1.05;0.30;;;20.30;93.00;;;;;;5031115;28;20017;-70
2022/07/02 08:42:32;;;;;;;2.67;0.43;;;20.20;92.90;;;;;;5031489;28;20042;-70
2022/07/02 08:45:00;;;;;;;1.23;0.40;;;20.30;93.20;;;;;;5031003;28;20021;-70
2022/07/02 08:47:26;;;;;;;2.83;0.80;;;20.30;93.10;;;;;;5031277;28;20044;-70
2022/07/02 08:49:54;;;;;;;2.75;0.35;;;20.40;92.80;;;;;;5030924;28;20014;-70
2022/07/02 08:52:23;;;;;;;0.70;0.40;;;20.40;92.90;;;;;;5031018;28;20356;-70
2022/07/02 08:54:49;;;;;;;4.00;0.60;;;20.50;93.10;;;;;;5030810;28;20021;-70
2022/07/02 08:57:16;;;;;;;3.25;0.65;;;20.60;92.10;;;;;;5029986;28;20025;-70
2022/07/02 08:59:42;;;;;;;0.93;0.77;;;20.70;92.90;;;;;;5030834;28;20021;-70
2022/07/02 09:02:10;;;;;;;4.93;1.10;;;20.90;92.70;;;;;;5030923;28;20033;-70
2022/07/02 09:04:44;;;;;;;1.50;0.40;;;20.50;92.70;;;;;;5030595;28;20083;-70
2022/07/02 09:07:12;;;;;;;1.23;0.57;;;20.70;91.80;;;;;;5052812;23;20055;-71
2022/07/02 09:09:41;;;;;;;2.25;0.40;;;20.80;92.60;;;;;;5029611;28;20033;-71
2022/07/02 09:12:14;;;;;;;1.83;0.80;;;20.90;92.30;;;;;;5029447;28;20068;-71
2022/07/02 09:14:41;;;;;;;1.95;0.50;;;20.80;91.60;;;;;;5029365;28;20454;-71
2022/07/02 09:17:08;;;;;;;3.75;0.90;;;21.00;92.50;;;;;;5029120;28;20029;-70
2022/07/02 09:19:39;;;;;;;2.08;0.50;;;20.90;92.10;;;;;;5019464;27;1215387;-71
2022/07/02 09:22:07;;;;;;;6.05;0.80;;;20.90;91.90;;;;;;5045955;28;20061;-71
2022/07/02 09:24:37;;;;;;;4.72;0.88;;;22.00;92.30;;;;;;5045931;28;20076;-71
2022/07/02 09:27:06;;;;;;;1.95;0.60;;;21.20;92.30;;;;;;5045595;28;20112;-71
2022/07/02 09:29:44;;;;;;;2.70;0.77;;;22.10;92.20;;;;;;5046224;28;20021;-72
2022/07/02 09:32:10;;;;;;;1.83;0.70;;;22.80;92.40;;;;;;5045850;28;20029;-71
2022/07/02 09:34:50;;;;;;;1.25;0.40;;;21.50;91.40;;;;;;5045134;28;20022;-71
2022/07/02 09:37:21;;;;;;;3.30;0.70;;;21.60;90.70;;;;;;5045407;28;20032;-71
2022/07/02 09:39:48;;;;;;;2.70;0.45;;;21.50;90.60;;;;;;5045510;28;20112;-71
2022/07/02 09:42:34;;;;;;;1.13;0.40;;;21.50;91.20;;;;;;5045373;28;20100;-71
2022/07/02 09:45:03;;;;;;;2.05;0.52;;;21.60;90.60;;;;;;5025582;28;20100;-71
2022/07/02 09:47:39;;;;;;;4.32;0.47;;;21.50;91.10;;;;;;5038113;28;20013;-71
2022/07/02 09:50:07;;;;;;;2.13;0.50;;;21.50;91.40;;;;;;5044577;28;20112;-71
2022/07/02 09:52:34;;;;;;;1.52;0.73;;;21.40;91.00;;;;;;5045632;28;20021;-71
2022/07/02 09:55:00;;;;;;;2.13;0.60;;;21.50;91.00;;;;;;5044880;28;20028;-71
2022/07/02 09:57:26;;;;;;;3.60;0.50;;;21.60;90.80;;;;;;5045214;28;20022;-71
2022/07/02 09:59:52;;;;;;;1.67;0.70;;;21.90;90.60;;;;;;5045300;28;20318;-71
2022/07/02 10:02:22;;;;;;;3.08;0.80;;;21.90;90.40;;;;;;5044947;28;20017;-71
2022/07/02 10:04:51;;;;;;;1.20;0.60;;;22.10;90.30;;;;;;5044605;28;20029;-71
2022/07/02 10:07:22;;;;;;;1.42;0.55;;;22.30;90.10;;;;;;5044851;28;20042;-71
2022/07/02 10:09:49;;;;;;;2.92;0.73;;;22.30;87.30;;;;;;5045028;28;20508;-71
2022/07/02 10:12:16;;;;;;;2.58;0.50;;;23.20;89.80;;;;;;5044881;28;20029;-72
2022/07/02 10:14:46;;;;;;;1.88;0.47;;;22.60;89.50;;;;;;5044703;28;20060;-71
2022/07/02 10:17:14;;;;;;;2.30;0.55;;;22.40;89.50;;;;;;5044190;28;20332;-71
2022/07/02 10:19:40;;;;;;;3.33;0.60;;;23.20;89.90;;;;;;5044742;28;20470;-71
2022/07/02 10:22:07;;;;;;;5.53;0.60;;;22.40;89.30;;;;;;5044646;28;20061;-71
2022/07/02 10:24:33;;;;;;;2.47;0.60;;;22.30;89.50;;;;;;5026957;28;20083;-71
2022/07/02 10:27:00;;;;;;;4.70;0.63;;;22.30;89.30;;;;;;5044514;28;20056;-72
2022/07/02 10:29:26;;;;;;;3.40;0.60;;;22.90;89.50;;;;;;5040157;28;20029;-71
2022/07/02 10:32:31;;;;;;;3.92;0.90;;;22.40;88.70;;;;;;5030841;28;20032;-71
2022/07/02 10:35:15;;;;;;;1.45;0.50;;;22.60;87.10;;;;;;5031130;28;20501;-71
2022/07/02 10:37:42;;;;;;;2.45;0.70;;;22.60;87.60;;;;;;5031017;28;20044;-71
2022/07/02 10:40:09;;;;;;;1.77;0.50;;;22.50;86.70;;;;;;5031138;28;20056;-71
2022/07/02 10:42:48;;;;;;;4.05;0.40;;;22.60;85.40;;;;;;5031236;28;20021;-71
2022/07/02 10:45:22;;;;;;;3.53;0.45;;;22.60;87.00;;;;;;5031306;28;20064;-71
2022/07/02 10:48:02;;;;;;;1.73;0.73;;;22.70;85.30;;;;;;5030466;28;20049;-71
2022/07/02 10:50:40;;;;;;;2.13;0.50;;;22.90;84.60;;;;;;5031434;28;20017;-71
2022/07/02 10:53:27;;;;;;;1.75;0.57;;;23.00;86.00;;;;;;5030677;28;20018;-71
2022/07/02 10:55:58;;;;;;;1.95;0.40;;;23.30;85.90;;;;;;5031063;28;20142;-71
2022/07/02 10:58:29;;;;;;;2.42;0.50;;;23.20;85.10;;;;;;5031118;28;20390;-71
2022/07/02 11:00:55;;;;;;;4.85;0.63;;;23.30;82.80;;;;;;5030459;28;20021;-71
2022/07/02 11:03:26;;;;;;;2.40;0.60;;;23.40;84.40;;;;;;5030615;28;20032;-72
2022/07/02 11:05:57;;;;;;;3.85;0.47;;;23.40;85.90;;;;;;5030566;28;20017;-71
2022/07/02 11:08:44;;;;;;;0.85;0.32;;;24.20;85.10;;;;;;5030783;28;20026;-71
2022/07/02 11:11:12;;;;;;;2.38;0.43;;;23.50;82.50;;;;;;5030555;28;20021;-71
2022/07/02 11:13:55;;;;;;;2.80;0.70;;;23.60;83.70;;;;;;5030818;28;20026;-73
2022/07/02 11:16:38;;;;;;;3.28;0.98;;;23.60;83.60;;;;;;5018522;28;20129;-72
2022/07/02 11:19:06;;;;;;;1.90;0.50;;;23.60;82.30;;;;;;5029960;28;20524;-71
2022/07/02 11:21:32;;;;;;;1.67;0.30;;;23.70;82.00;;;;;;5030682;28;20478;-71
2022/07/02 11:23:58;;;;;;;1.33;0.50;;;24.00;82.10;;;;;;5030315;28;20036;-71
2022/07/02 11:26:25;;;;;;;2.92;0.40;;;24.20;80.30;;;;;;5030338;28;20009;-70
2022/07/02 11:28:52;;;;;;;2.63;0.55;;;24.50;80.20;;;;;;5030334;28;20044;-72
2022/07/02 11:31:21;;;;;;;2.88;0.60;;;24.70;79.40;;;;;;5029363;28;20601;-71
2022/07/02 11:33:52;;;;;;;1.77;0.50;;;25.00;78.40;;;;;;5029962;28;20029;-71
2022/07/02 11:36:18;;;;;;;3.10;1.10;;;24.70;78.20;;;;;;5030089;28;20021;-71
2022/07/02 11:38:48;;;;;;;4.00;0.60;;;24.70;78.00;;;;;;5030337;28;20108;-71
2022/07/02 11:41:35;;;;;;;3.35;0.82;;;24.50;76.30;;;;;;5029162;28;20049;-71
2022/07/02 11:44:11;;;;;;;1.60;0.43;;;24.60;78.50;;;;;;5018411;28;20478;-71
2022/07/02 11:46:36;;;;;;;2.58;0.40;;;25.20;78.40;;;;;;5029263;28;20021;-71
2022/07/02 11:49:02;;;;;;;3.35;0.70;;;24.90;77.00;;;;;;5029909;28;20383;-71
2022/07/02 11:51:28;;;;;;;2.20;0.68;;;25.80;77.10;;;;;;5030100;28;20024;-71
2022/07/02 11:54:00;;;;;;;1.10;0.43;;;24.90;76.70;;;;;;5029727;28;20574;-72
2022/07/02 11:56:27;;;;;;;3.35;0.55;;;24.60;75.90;;;;;;5029186;28;20045;-71
2022/07/02 11:58:53;;;;;;;1.10;0.40;;;24.70;77.50;;;;;;5009187;28;20037;-71
2022/07/02 12:01:30;;;;;;;2.88;0.50;;;24.60;77.60;;;;;;5027841;28;20116;-71
2022/07/02 12:04:04;;;;;;;2.97;0.50;;;24.90;78.10;;;;;;5029187;28;20192;-70
2022/07/02 12:06:35;;;;;;;3.22;0.60;;;25.00;75.10;;;;;;5029461;28;20433;-71
2022/07/02 12:09:05;;;;;;;3.25;0.50;;;24.90;77.20;;;;;;5029101;28;20053;-71
2022/07/02 12:11:32;;;;;;;1.67;0.40;;;24.90;76.20;;;;;;5028846;28;20317;-71
2022/07/02 12:13:59;;;;;;;1.55;0.55;;;25.30;76.30;;;;;;5007341;28;20025;-70
2022/07/02 12:16:26;;;;;;;2.65;0.50;;;27.10;76.80;;;;;;5018442;28;20067;-71
2022/07/02 12:18:59;;;;;;;0.70;0.30;;;24.90;75.70;;;;;;5016223;28;20140;-71
2022/07/02 12:21:31;;;;;;;1.27;0.60;;;25.00;76.20;;;;;;5015117;28;20021;-71
2022/07/02 12:23:57;;;;;;;0.93;0.40;;;24.80;76.00;;;;;;5029329;28;20101;-71
2022/07/02 12:26:27;;;;;;;2.67;0.43;;;25.90;76.00;;;;;;5029231;28;20049;-71
2022/07/02 12:31:49;;;;;;;1.65;0.30;;;24.90;73.80;;;;;;5015589;28;20035;-71
2022/07/02 12:34:16;;;;;;;0.57;0.25;;;25.00;72.60;;;;;;5029034;28;20120;-70
2022/07/02 12:36:57;;;;;;;0.73;0.30;;;26.10;74.90;;;;;;5022201;28;20021;-70
2022/07/02 12:39:25;;;;;;;1.73;0.45;;;25.20;72.50;;;;;;5008984;28;20065;-71
2022/07/02 12:41:51;;;;;;;0.82;0.40;;;25.10;73.80;;;;;;5027623;28;20013;-71
2022/07/02 12:44:22;;;;;;;4.07;0.50;;;25.40;73.60;;;;;;5028397;28;20029;-71
2022/07/02 12:46:50;;;;;;;1.80;0.30;;;25.40;73.70;;;;;;5028144;28;20022;-71
2022/07/02 12:49:21;;;;;;;2.13;0.32;;;25.40;72.70;;;;;;5010659;28;20471;-71
2022/07/02 12:52:02;;;;;;;1.52;0.50;;;25.70;70.10;;;;;;5028598;28;20021;-71
2022/07/02 12:54:38;;;;;;;1.90;0.30;;;25.90;72.10;;;;;;5023679;28;20093;-70
2022/07/02 12:57:14;;;;;;;1.90;0.20;;;26.30;70.90;;;;;;5022158;28;20525;-71
2022/07/02 12:59:41;;;;;;;1.63;0.40;;;26.10;71.70;;;;;;5026737;28;20095;-71
2022/07/02 13:02:08;;;;;;;2.00;0.30;;;25.50;70.90;;;;;;5028272;28;20366;-71
2022/07/02 13:04:33;;;;;;;1.88;0.40;;;25.80;71.70;;;;;;5028634;28;20024;-71